Time;durP1;ratioP1;P1;durP2;ratioP2;P2;SDS_P1;SDS_P2;PMS_P1;PMS_P2;Temp;Humidity;BMP_temperature;BMP_pressure;BME280_temperature;BME280_humidity;BME280_pressure;Samples;Min_cycle;Max_cycle;Signal;HPM_P1;HPM_P2
2022/11/19 00:01:24;;;;;;;6.90;5.10;;;8.40;99.90;;;;;;5003993;28;20228;-88
2022/11/19 00:03:50;;;;;;;6.73;5.20;;;8.30;99.90;;;;;;5002922;28;20213;-87
2022/11/19 00:06:18;;;;;;;6.80;5.10;;;8.30;99.90;;;;;;5002337;28;20182;-87
2022/11/19 00:08:45;;;;;;;6.23;5.00;;;8.30;99.90;;;;;;5002322;28;20186;-88
2022/11/19 00:11:13;;;;;;;5.87;4.87;;;8.30;99.90;;;;;;5002006;28;20221;-87
2022/11/19 00:13:40;;;;;;;6.63;4.80;;;8.30;99.90;;;;;;5002777;28;20217;-89
2022/11/19 00:16:11;;;;;;;5.97;4.67;;;8.20;99.90;;;;;;5003100;28;20213;-86
2022/11/19 00:18:37;;;;;;;4.67;4.27;;;8.20;99.90;;;;;;5003428;28;20222;-87
2022/11/19 00:21:06;;;;;;;7.83;4.87;;;8.20;99.90;;;;;;4997404;28;20186;-87
2022/11/19 00:23:31;;;;;;;6.43;4.93;;;8.10;99.90;;;;;;5003764;28;20191;-88
2022/11/19 00:26:05;;;;;;;9.37;5.70;;;8.20;99.90;;;;;;5003874;28;20193;-88
2022/11/19 00:28:31;;;;;;;9.60;5.23;;;8.20;99.90;;;;;;5014419;28;20201;-88
2022/11/19 00:31:06;;;;;;;6.73;5.20;;;8.20;99.90;;;;;;4997590;28;20278;-89
2022/11/19 00:33:32;;;;;;;9.20;4.80;;;8.20;99.90;;;;;;5003186;28;20766;-87
2022/11/19 00:35:59;;;;;;;6.40;4.77;;;8.20;99.90;;;;;;5004476;28;20208;-86
2022/11/19 00:38:27;;;;;;;5.30;4.80;;;8.30;99.90;;;;;;5004073;28;20305;-87
2022/11/19 00:40:53;;;;;;;7.90;5.20;;;8.30;99.90;;;;;;5003863;28;20208;-87
2022/11/19 00:46:04;;;;;;;5.37;4.80;;;8.30;99.90;;;;;;5003467;28;20252;-86
2022/11/19 00:48:32;;;;;;;5.33;4.83;;;8.30;99.90;;;;;;5004276;28;20190;-88
2022/11/19 00:50:58;;;;;;;5.73;4.67;;;8.30;99.90;;;;;;5003365;28;20186;-87
2022/11/19 00:53:24;;;;;;;8.60;5.83;;;8.30;99.90;;;;;;5004161;28;20233;-87
2022/11/19 00:55:49;;;;;;;5.13;4.20;;;8.40;99.90;;;;;;5004456;28;20182;-87
2022/11/19 00:58:16;;;;;;;6.50;4.13;;;8.40;99.90;;;;;;5004338;28;20241;-88
2022/11/19 01:00:42;;;;;;;5.73;4.90;;;8.40;99.90;;;;;;5003920;28;20644;-87
2022/11/19 01:03:07;;;;;;;5.77;5.20;;;8.30;99.90;;;;;;5003912;28;20182;-86
2022/11/19 01:05:33;;;;;;;5.63;5.07;;;8.40;99.90;;;;;;5004070;28;20225;-87
2022/11/19 01:07:59;;;;;;;5.30;4.80;;;8.50;99.90;;;;;;5003708;28;20198;-87
2022/11/19 01:10:25;;;;;;;5.70;5.03;;;8.60;99.90;;;;;;5004186;28;20226;-86
2022/11/19 01:15:55;;;;;;;5.23;4.73;;;8.70;99.90;;;;;;4947106;29;20202;-87
2022/11/19 01:18:20;;;;;;;5.30;4.80;;;8.80;99.90;;;;;;4950809;29;20235;-87
2022/11/19 01:20:46;;;;;;;7.20;5.10;;;8.80;99.90;;;;;;4976122;28;20222;-88
2022/11/19 01:23:12;;;;;;;6.50;5.90;;;8.70;99.90;;;;;;5014457;28;20201;-89
2022/11/19 01:25:38;;;;;;;7.10;6.40;;;8.50;99.90;;;;;;4998389;28;20205;-88
2022/11/19 01:28:04;;;;;;;8.17;5.70;;;8.30;99.90;;;;;;5015078;28;20181;-89
2022/11/19 01:30:30;;;;;;;7.97;7.17;;;8.30;99.90;;;;;;5011492;28;20214;-87
2022/11/19 01:32:56;;;;;;;7.00;6.40;;;8.20;99.90;;;;;;5003788;28;20258;-87
2022/11/19 01:35:22;;;;;;;11.03;6.23;;;8.20;99.90;;;;;;5003476;28;20739;-89
2022/11/19 01:37:48;;;;;;;8.27;6.63;;;8.20;99.90;;;;;;4998046;28;20237;-87
2022/11/19 01:40:14;;;;;;;7.47;6.30;;;8.10;99.90;;;;;;4983952;28;20214;-90
2022/11/19 01:42:48;;;;;;;8.70;6.50;;;8.10;99.90;;;;;;5002142;28;20163;-88
2022/11/19 01:45:34;;;;;;;9.73;7.17;;;8.00;99.90;;;;;;4998195;28;20244;-87
2022/11/19 01:48:24;;;;;;;9.93;7.30;;;8.00;99.90;;;;;;4991355;28;20209;-87
2022/11/19 01:50:57;;;;;;;8.90;6.70;;;8.00;99.90;;;;;;5001820;28;20362;-87
2022/11/19 01:53:28;;;;;;;12.00;7.47;;;7.90;99.90;;;;;;5002582;28;20212;-88
2022/11/19 01:55:58;;;;;;;8.07;6.07;;;7.90;99.90;;;;;;5001953;28;20233;-88
2022/11/19 01:58:24;;;;;;;8.23;6.30;;;8.10;99.90;;;;;;5002113;28;20301;-87
2022/11/19 02:00:50;;;;;;;7.27;5.87;;;8.00;99.90;;;;;;5001828;28;20277;-87
2022/11/19 02:03:17;;;;;;;11.07;6.97;;;8.00;99.90;;;;;;5001293;28;20186;-87
2022/11/19 02:05:45;;;;;;;6.30;5.70;;;8.10;99.90;;;;;;5001234;28;20178;-88
2022/11/19 02:08:33;;;;;;;7.97;6.30;;;8.10;99.90;;;;;;5001000;28;20189;-87
2022/11/19 02:11:32;;;;;;;8.13;6.43;;;8.10;99.90;;;;;;5001917;28;20187;-88
2022/11/19 02:14:34;;;;;;;6.77;6.17;;;8.20;99.90;;;;;;4997909;28;20209;-87
2022/11/19 02:17:18;;;;;;;8.67;6.87;;;8.20;99.90;;;;;;4992210;28;20218;-88
2022/11/19 02:19:59;;;;;;;7.67;5.87;;;8.10;99.90;;;;;;5000957;28;20272;-88
2022/11/19 02:22:28;;;;;;;8.43;6.10;;;8.10;99.90;;;;;;5004670;28;20196;-88
2022/11/19 02:25:04;;;;;;;8.17;6.30;;;8.10;99.90;;;;;;5002577;28;20214;-87
2022/11/19 02:27:42;;;;;;;7.70;5.97;;;8.10;99.90;;;;;;4997681;28;20636;-88
2022/11/19 02:30:10;;;;;;;10.63;6.37;;;8.10;99.90;;;;;;4992815;28;20214;-86
2022/11/19 02:33:02;;;;;;;7.47;5.80;;;8.10;99.90;;;;;;5000351;28;20213;-88
2022/11/19 02:35:49;;;;;;;9.13;6.23;;;8.10;99.90;;;;;;4987590;28;20182;-88
2022/11/19 02:38:41;;;;;;;8.03;6.53;;;8.00;99.90;;;;;;5003459;28;20202;-88
2022/11/19 02:41:32;;;;;;;9.73;6.13;;;8.00;99.90;;;;;;4975823;28;20194;-87
2022/11/19 02:47:02;;;;;;;8.83;6.00;;;8.00;99.90;;;;;;5002290;28;20189;-88
2022/11/19 02:49:31;;;;;;;9.37;6.47;;;7.90;99.90;;;;;;5004869;28;20264;-88
2022/11/19 02:51:59;;;;;;;9.10;6.80;;;7.90;99.90;;;;;;5004504;28;20201;-88
2022/11/19 02:54:26;;;;;;;7.07;6.37;;;8.00;99.90;;;;;;5005062;28;20634;-87
2022/11/19 02:56:55;;;;;;;8.47;5.93;;;8.10;99.90;;;;;;5004970;28;20217;-88
2022/11/19 03:05:07;;;;;;;9.60;6.23;;;8.00;99.90;;;;;;5005380;28;20248;-87
2022/11/19 03:07:34;;;;;;;6.93;6.27;;;8.00;99.90;;;;;;5005165;28;20178;-85
2022/11/19 03:10:05;;;;;;;7.73;6.30;;;8.20;99.90;;;;;;5004035;28;20301;-87
2022/11/19 03:12:39;;;;;;;7.00;6.37;;;8.10;99.90;;;;;;5005308;28;20302;-88
2022/11/19 03:18:34;;;;;;;6.37;5.77;;;8.20;99.90;;;;;;5001144;28;20232;-87
2022/11/19 03:21:02;;;;;;;8.23;5.83;;;8.20;99.90;;;;;;5004484;28;20240;-88
2022/11/19 03:23:38;;;;;;;5.93;5.33;;;8.30;99.90;;;;;;5006476;28;20572;-86
2022/11/19 03:26:28;;;;;;;7.07;6.07;;;8.30;99.90;;;;;;4998162;28;20751;-87
2022/11/19 03:28:57;;;;;;;7.47;6.23;;;8.30;99.90;;;;;;4996446;28;20294;-86
2022/11/19 03:31:26;;;;;;;9.80;6.33;;;8.30;99.90;;;;;;5004544;28;20186;-87
2022/11/19 03:33:55;;;;;;;9.20;6.13;;;8.30;99.90;;;;;;5004873;28;20268;-86
2022/11/19 03:36:25;;;;;;;7.20;6.30;;;8.30;99.90;;;;;;5005367;28;20249;-87
2022/11/19 03:38:59;;;;;;;7.00;5.80;;;8.30;99.90;;;;;;5005165;28;20731;-86
2022/11/19 03:41:26;;;;;;;6.37;5.20;;;8.30;99.90;;;;;;5004525;28;20216;-86
2022/11/19 03:44:04;;;;;;;5.90;5.40;;;8.30;99.90;;;;;;4991940;28;20198;-86
2022/11/19 03:46:34;;;;;;;8.53;5.57;;;8.30;99.90;;;;;;4996344;28;20189;-87
2022/11/19 03:49:03;;;;;;;6.00;5.40;;;8.30;99.90;;;;;;5003442;28;20210;-86
2022/11/19 03:51:37;;;;;;;7.70;5.73;;;8.30;99.90;;;;;;5002876;28;20186;-87
2022/11/19 03:54:03;;;;;;;6.13;5.53;;;8.30;99.90;;;;;;5005522;28;20593;-87
2022/11/19 03:56:33;;;;;;;5.97;5.33;;;8.30;99.90;;;;;;5003029;28;20191;-87
2022/11/19 03:58:59;;;;;;;7.90;6.33;;;8.20;99.90;;;;;;5002356;28;20225;-87
2022/11/19 04:01:26;;;;;;;6.57;5.60;;;8.20;99.90;;;;;;5003523;28;20199;-87
2022/11/19 04:06:36;;;;;;;6.23;5.67;;;8.40;99.90;;;;;;5004709;28;20197;-87
2022/11/19 04:09:02;;;;;;;6.50;5.30;;;8.40;99.90;;;;;;5003931;28;20209;-88
2022/11/19 04:11:28;;;;;;;6.50;5.90;;;8.40;99.90;;;;;;5003094;28;20201;-87
2022/11/19 04:13:53;;;;;;;6.00;5.40;;;8.40;99.90;;;;;;5004058;28;20190;-87
2022/11/19 04:16:19;;;;;;;6.87;5.73;;;8.40;99.90;;;;;;5003671;28;20248;-88
2022/11/19 04:18:45;;;;;;;5.93;5.33;;;8.40;99.90;;;;;;5004270;28;20202;-87
2022/11/19 04:21:10;;;;;;;8.83;5.67;;;8.50;99.90;;;;;;4999698;28;20245;-87
2022/11/19 04:23:36;;;;;;;6.03;5.53;;;8.40;99.90;;;;;;5004284;28;20193;-89
2022/11/19 04:26:02;;;;;;;8.37;6.00;;;8.30;99.90;;;;;;5004100;28;20194;-86
2022/11/19 04:28:27;;;;;;;7.67;6.50;;;8.30;99.90;;;;;;5004346;28;20182;-86
2022/11/19 04:30:53;;;;;;;6.10;5.50;;;8.20;99.90;;;;;;5004016;28;20301;-87
2022/11/19 04:33:19;;;;;;;6.37;5.77;;;8.30;99.90;;;;;;5004305;28;20198;-86
2022/11/19 04:35:45;;;;;;;7.83;5.73;;;8.20;99.90;;;;;;5002787;28;20186;-87
2022/11/19 04:38:11;;;;;;;6.83;6.23;;;8.20;99.90;;;;;;5001054;28;20198;-87
2022/11/19 04:40:38;;;;;;;6.63;5.87;;;8.20;99.90;;;;;;5001206;28;20687;-87
2022/11/19 04:43:04;;;;;;;7.07;6.30;;;8.20;99.90;;;;;;5001863;28;20193;-87
2022/11/19 04:45:30;;;;;;;7.57;6.87;;;8.10;99.90;;;;;;5003193;28;20186;-87
2022/11/19 04:47:55;;;;;;;7.90;7.10;;;8.10;99.90;;;;;;5007706;28;20700;-87
2022/11/19 04:50:21;;;;;;;8.57;6.97;;;8.00;99.90;;;;;;4985609;28;20333;-88
2022/11/19 04:52:47;;;;;;;7.87;6.67;;;8.10;99.90;;;;;;5004285;28;20288;-87
2022/11/19 04:55:13;;;;;;;7.90;7.20;;;8.00;99.90;;;;;;5002700;28;20182;-87
2022/11/19 04:57:38;;;;;;;9.30;7.50;;;8.10;99.90;;;;;;5001726;28;20206;-87
2022/11/19 05:00:06;;;;;;;9.27;7.13;;;8.10;99.90;;;;;;5001207;28;20206;-87
2022/11/19 05:02:31;;;;;;;10.03;7.67;;;8.20;99.90;;;;;;4998174;28;20182;-87
2022/11/19 05:04:57;;;;;;;9.77;7.33;;;8.10;99.90;;;;;;5001223;28;20190;-87
2022/11/19 05:07:22;;;;;;;8.40;7.60;;;8.10;99.90;;;;;;5002015;28;20205;-87
2022/11/19 05:09:48;;;;;;;8.00;7.10;;;8.00;99.90;;;;;;5000742;28;20206;-86
2022/11/19 05:12:14;;;;;;;8.00;7.20;;;8.10;99.90;;;;;;5002313;28;20194;-87
2022/11/19 05:14:39;;;;;;;7.83;6.70;;;8.10;99.90;;;;;;5003025;28;20201;-87
2022/11/19 05:17:05;;;;;;;10.63;6.80;;;8.10;99.90;;;;;;5000890;28;20222;-86
2022/11/19 05:19:31;;;;;;;8.03;7.33;;;8.10;99.90;;;;;;5001897;28;20234;-87
2022/11/19 05:21:56;;;;;;;8.77;7.57;;;8.00;99.90;;;;;;5001541;28;20640;-88
2022/11/19 05:24:22;;;;;;;7.60;6.90;;;8.10;99.90;;;;;;5002334;28;20233;-87
2022/11/19 05:26:47;;;;;;;7.77;7.07;;;8.10;99.90;;;;;;5001112;28;20182;-88
2022/11/19 05:29:13;;;;;;;8.53;7.00;;;8.20;99.90;;;;;;5001751;28;20230;-88
2022/11/19 05:31:39;;;;;;;10.47;6.60;;;8.30;99.90;;;;;;5002071;28;20190;-87
2022/11/19 05:34:05;;;;;;;7.27;6.57;;;8.30;99.90;;;;;;5001960;28;20210;-88
2022/11/19 05:36:30;;;;;;;7.97;6.67;;;8.30;99.90;;;;;;5002310;28;20205;-87
2022/11/19 05:38:56;;;;;;;8.93;7.40;;;8.30;99.90;;;;;;4985194;28;20241;-88
2022/11/19 05:41:21;;;;;;;7.13;6.53;;;8.10;99.90;;;;;;5002844;28;20318;-87
2022/11/19 05:43:47;;;;;;;8.30;7.50;;;8.10;99.90;;;;;;5003523;28;20248;-87
2022/11/19 05:46:13;;;;;;;7.67;6.97;;;8.10;99.90;;;;;;5003905;28;20194;-87
2022/11/19 05:48:38;;;;;;;8.30;7.10;;;8.10;99.90;;;;;;5002310;28;20591;-87
2022/11/19 05:51:04;;;;;;;7.83;7.03;;;8.30;99.90;;;;;;5001183;28;20198;-88
2022/11/19 05:53:30;;;;;;;7.20;6.47;;;8.30;99.90;;;;;;5008995;28;20220;-87
2022/11/19 05:55:55;;;;;;;7.40;6.70;;;8.30;99.90;;;;;;5001723;28;20217;-88
2022/11/19 05:58:21;;;;;;;7.70;6.50;;;8.20;99.90;;;;;;5001358;28;20222;-87
2022/11/19 06:00:47;;;;;;;9.37;8.40;;;8.30;99.90;;;;;;5001205;28;20213;-86
2022/11/19 06:03:12;;;;;;;7.80;6.83;;;8.40;99.90;;;;;;5001285;28;20190;-87
2022/11/19 06:05:38;;;;;;;9.10;8.20;;;8.30;99.90;;;;;;5002575;28;20195;-87
2022/11/19 06:08:04;;;;;;;9.03;7.77;;;8.30;99.90;;;;;;4985343;28;20210;-87
2022/11/19 06:10:30;;;;;;;7.17;6.57;;;8.40;99.90;;;;;;5005242;28;20206;-86
2022/11/19 06:12:56;;;;;;;9.23;7.63;;;8.30;99.90;;;;;;5003886;28;20201;-87
2022/11/19 06:15:21;;;;;;;7.13;6.43;;;8.30;99.90;;;;;;5005906;28;20207;-87
2022/11/19 06:17:47;;;;;;;7.33;6.53;;;8.30;99.90;;;;;;5005770;28;20209;-87
2022/11/19 06:20:13;;;;;;;7.30;6.53;;;8.20;99.90;;;;;;5005235;28;21012;-86
2022/11/19 06:22:38;;;;;;;7.80;6.97;;;8.20;99.90;;;;;;5005666;28;20656;-86
2022/11/19 06:25:06;;;;;;;7.40;6.67;;;8.20;99.90;;;;;;5004825;28;20182;-86
2022/11/19 06:27:33;;;;;;;7.17;6.47;;;8.20;99.90;;;;;;5005478;28;20185;-86
2022/11/19 06:29:59;;;;;;;8.50;6.57;;;8.30;99.90;;;;;;5005640;28;20206;-88
2022/11/19 06:32:24;;;;;;;9.23;6.90;;;8.30;99.90;;;;;;5010117;28;20257;-86
2022/11/19 06:34:50;;;;;;;7.70;6.73;;;8.20;99.90;;;;;;5004671;28;20763;-87
2022/11/19 06:37:16;;;;;;;7.40;6.60;;;8.20;99.90;;;;;;5011057;28;20202;-87
2022/11/19 06:39:42;;;;;;;7.50;6.70;;;8.20;99.90;;;;;;5004886;28;20214;-87
2022/11/19 06:44:51;;;;;;;8.87;6.93;;;8.10;99.90;;;;;;5005642;28;20193;-86
2022/11/19 06:47:17;;;;;;;7.90;6.60;;;8.10;99.90;;;;;;5005309;28;20194;-86
2022/11/19 06:49:43;;;;;;;9.67;6.63;;;8.10;99.90;;;;;;5005463;28;20615;-86
2022/11/19 06:52:08;;;;;;;7.97;7.00;;;8.10;99.90;;;;;;5001957;28;20354;-88
2022/11/19 06:54:34;;;;;;;8.23;6.80;;;8.10;99.90;;;;;;5006768;28;20190;-86
2022/11/19 06:56:59;;;;;;;9.07;7.77;;;8.10;99.90;;;;;;5005254;28;20213;-87
2022/11/19 06:59:25;;;;;;;8.67;7.77;;;8.10;99.90;;;;;;5004489;28;20625;-86
2022/11/19 07:01:51;;;;;;;8.93;8.03;;;8.20;99.90;;;;;;5003371;28;20201;-86
2022/11/19 07:04:16;;;;;;;9.53;8.47;;;8.10;99.90;;;;;;5003380;28;20232;-86
2022/11/19 07:06:42;;;;;;;10.73;7.83;;;8.20;99.90;;;;;;5004016;28;20253;-87
2022/11/19 07:09:08;;;;;;;11.13;9.03;;;8.20;99.90;;;;;;5004583;28;20270;-87
2022/11/19 07:11:34;;;;;;;9.70;8.53;;;8.20;99.90;;;;;;5003821;28;20202;-87
2022/11/19 07:14:02;;;;;;;8.97;8.00;;;8.20;99.90;;;;;;5004850;28;20186;-86
2022/11/19 07:16:33;;;;;;;12.30;9.07;;;8.20;99.90;;;;;;5005196;28;20237;-86
2022/11/19 07:19:01;;;;;;;9.63;8.50;;;8.20;99.90;;;;;;5004343;28;20213;-87
2022/11/19 07:21:28;;;;;;;10.03;8.97;;;8.10;99.90;;;;;;5003530;28;20645;-87
2022/11/19 07:23:54;;;;;;;10.37;9.17;;;8.10;99.90;;;;;;4995232;28;20206;-82
2022/11/19 07:26:20;;;;;;;12.47;8.67;;;8.10;99.90;;;;;;5004848;28;20182;-85
2022/11/19 07:28:46;;;;;;;13.43;9.33;;;8.10;99.90;;;;;;5002073;28;20190;-84
2022/11/19 07:31:12;;;;;;;10.20;8.30;;;8.10;99.90;;;;;;5004933;28;20193;-84
2022/11/19 07:33:39;;;;;;;10.80;9.70;;;8.10;99.90;;;;;;5004728;28;20177;-86
2022/11/19 07:36:10;;;;;;;9.40;8.47;;;8.10;99.90;;;;;;5003891;28;20182;-88
2022/11/19 07:38:37;;;;;;;10.07;8.37;;;8.20;99.90;;;;;;5002853;28;20222;-87
2022/11/19 07:42:48;;;;;;;9.07;8.13;;;8.30;99.90;;;;;;5002354;28;20190;-87
2022/11/19 07:43:52;;;;;;;11.13;8.93;;;8.30;99.90;;;;;;4998336;28;20209;-86
2022/11/19 07:46:18;;;;;;;10.53;8.43;;;8.20;99.90;;;;;;5003278;28;20194;-87
2022/11/19 07:48:43;;;;;;;12.50;8.47;;;8.30;99.90;;;;;;5003237;28;20196;-87
2022/11/19 07:51:09;;;;;;;9.43;8.40;;;8.30;99.90;;;;;;5003565;28;20189;-87
2022/11/19 07:53:35;;;;;;;12.57;8.17;;;8.20;99.90;;;;;;5002725;28;20201;-87
2022/11/19 07:56:01;;;;;;;9.90;8.50;;;8.20;99.90;;;;;;5002319;28;20186;-87
2022/11/19 07:58:26;;;;;;;8.93;8.00;;;8.30;99.90;;;;;;5003278;28;20241;-87
2022/11/19 08:00:52;;;;;;;9.73;8.00;;;8.20;99.90;;;;;;5002846;28;20222;-88
2022/11/19 08:03:18;;;;;;;11.43;8.07;;;8.30;99.90;;;;;;5002952;28;20237;-87
2022/11/19 08:05:44;;;;;;;9.40;7.23;;;8.30;99.90;;;;;;5002791;28;20183;-87
2022/11/19 08:08:10;;;;;;;8.03;7.23;;;8.40;99.90;;;;;;5002416;28;20190;-87
2022/11/19 08:10:35;;;;;;;8.20;7.27;;;8.30;99.90;;;;;;5003264;28;20199;-87
2022/11/19 08:13:04;;;;;;;9.83;8.60;;;8.30;99.90;;;;;;5002509;28;20190;-87
2022/11/19 08:15:31;;;;;;;7.57;6.67;;;8.40;99.90;;;;;;4987317;28;20664;-87
2022/11/19 08:18:14;;;;;;;19.00;15.37;;;8.50;99.90;;;;;;5001432;28;20853;-87
2022/11/19 08:20:43;;;;;;;10.97;8.73;;;8.40;99.90;;;;;;4997474;28;20203;-87
2022/11/19 08:23:10;;;;;;;16.30;9.77;;;8.30;99.90;;;;;;5002892;28;20185;-86
2022/11/19 08:25:36;;;;;;;9.60;7.70;;;8.30;99.90;;;;;;5004764;28;20273;-88
2022/11/19 08:28:03;;;;;;;9.73;6.23;;;8.30;99.90;;;;;;5000164;28;20198;-86
2022/11/19 08:30:30;;;;;;;7.57;6.30;;;8.30;99.90;;;;;;4993451;28;20210;-87
2022/11/19 08:32:56;;;;;;;9.67;5.83;;;8.30;99.90;;;;;;5000521;28;20846;-87
2022/11/19 08:35:22;;;;;;;5.60;5.10;;;8.40;99.90;;;;;;5000803;28;20204;-86
2022/11/19 08:37:47;;;;;;;6.60;5.23;;;8.40;99.90;;;;;;5000803;28;20272;-87
2022/11/19 08:40:13;;;;;;;6.10;5.50;;;8.40;99.90;;;;;;5000256;28;20292;-87
2022/11/19 08:45:25;;;;;;;5.50;5.00;;;8.60;99.90;;;;;;4999633;28;20209;-86
2022/11/19 08:47:51;;;;;;;7.03;5.67;;;8.40;99.90;;;;;;4998496;28;20191;-88
2022/11/19 08:50:17;;;;;;;7.07;5.67;;;8.50;99.90;;;;;;5002119;28;20210;-87
2022/11/19 08:52:43;;;;;;;7.20;5.57;;;8.60;99.90;;;;;;5000668;28;20247;-87
2022/11/19 08:55:09;;;;;;;8.50;6.30;;;8.50;99.90;;;;;;5001056;28;20186;-87
2022/11/19 08:57:34;;;;;;;6.33;5.27;;;8.50;99.90;;;;;;5000867;28;20202;-87
2022/11/19 09:00:00;;;;;;;7.63;6.20;;;8.60;99.90;;;;;;5001566;28;20564;-87
2022/11/19 09:02:26;;;;;;;6.63;5.93;;;8.60;99.90;;;;;;5002681;28;20193;-86
2022/11/19 09:04:51;;;;;;;8.03;6.40;;;8.50;99.90;;;;;;5002117;28;20221;-86
2022/11/19 09:07:17;;;;;;;7.40;5.80;;;8.50;99.90;;;;;;4985077;28;20847;-87
2022/11/19 09:09:43;;;;;;;8.63;6.37;;;8.60;99.90;;;;;;5002067;28;20272;-87
2022/11/19 09:12:09;;;;;;;5.63;5.10;;;8.70;99.90;;;;;;5001626;28;20206;-86
2022/11/19 09:14:34;;;;;;;7.97;5.70;;;8.70;99.90;;;;;;5001663;28;20222;-87
2022/11/19 09:17:00;;;;;;;8.97;8.07;;;8.60;99.90;;;;;;4995931;28;20226;-86
2022/11/19 09:19:26;;;;;;;7.97;6.50;;;8.70;99.90;;;;;;4995629;28;20202;-86
2022/11/19 09:21:51;;;;;;;8.30;6.10;;;8.80;99.90;;;;;;5001971;28;20575;-87
2022/11/19 09:24:17;;;;;;;7.17;5.93;;;8.80;99.90;;;;;;4992388;28;20187;-87
2022/11/19 09:26:43;;;;;;;7.60;6.10;;;8.90;99.90;;;;;;4985489;28;20198;-87
2022/11/19 09:29:09;;;;;;;10.67;6.53;;;8.80;99.90;;;;;;5002949;28;20627;-87
2022/11/19 09:31:35;;;;;;;7.00;6.30;;;8.80;99.90;;;;;;5002876;28;20249;-88
2022/11/19 09:34:00;;;;;;;9.50;6.80;;;8.80;99.90;;;;;;5002681;28;20187;-87
2022/11/19 09:36:26;;;;;;;8.77;6.63;;;8.80;99.90;;;;;;5002553;28;20182;-87
2022/11/19 09:38:56;;;;;;;7.03;6.30;;;8.70;99.90;;;;;;5001620;28;20221;-87
2022/11/19 09:41:39;;;;;;;8.67;6.23;;;8.90;99.90;;;;;;5001963;28;20181;-87
2022/11/19 09:44:40;;;;;;;9.37;6.30;;;8.80;99.90;;;;;;5002778;28;20206;-87
2022/11/19 09:47:24;;;;;;;5.80;5.30;;;8.80;99.90;;;;;;4968515;28;20676;-86
2022/11/19 09:50:02;;;;;;;8.40;5.17;;;8.90;99.90;;;;;;5007465;28;20215;-88
2022/11/19 09:52:32;;;;;;;6.83;5.30;;;8.80;99.90;;;;;;5007778;28;20219;-87
2022/11/19 09:54:59;;;;;;;5.57;5.07;;;8.90;99.90;;;;;;5007210;28;20178;-87
2022/11/19 09:57:44;;;;;;;6.13;4.60;;;8.90;99.90;;;;;;4991324;28;20220;-86
2022/11/19 10:00:17;;;;;;;4.57;4.17;;;9.00;99.90;;;;;;5004386;28;20221;-87
2022/11/19 10:02:43;;;;;;;7.13;4.87;;;8.90;99.90;;;;;;5008622;28;20183;-87
2022/11/19 10:05:14;;;;;;;5.47;4.97;;;8.90;99.90;;;;;;4999770;28;20705;-87
2022/11/19 10:07:55;;;;;;;5.13;4.70;;;8.80;99.90;;;;;;5003968;28;20198;-86
2022/11/19 10:10:33;;;;;;;7.90;4.73;;;9.00;99.90;;;;;;5001159;28;20232;-88
2022/11/19 10:13:17;;;;;;;5.40;4.90;;;8.90;99.90;;;;;;5001295;28;20208;-87
2022/11/19 10:16:00;;;;;;;4.40;3.83;;;8.80;99.90;;;;;;4999726;28;20281;-87
2022/11/19 10:18:34;;;;;;;6.93;3.57;;;8.90;99.90;;;;;;4997865;28;20381;-86
2022/11/19 10:21:17;;;;;;;5.17;4.20;;;8.90;99.90;;;;;;4988492;28;20312;-88
2022/11/19 10:23:59;;;;;;;5.43;3.90;;;8.90;99.90;;;;;;4999975;28;20202;-87
2022/11/19 10:26:35;;;;;;;4.63;4.20;;;8.90;99.90;;;;;;4997683;28;20194;-86
2022/11/19 10:29:11;;;;;;;5.87;3.90;;;8.80;99.90;;;;;;4999922;28;20221;-88
2022/11/19 10:31:42;;;;;;;4.67;3.57;;;8.80;99.90;;;;;;5004606;28;20186;-88
2022/11/19 10:34:34;;;;;;;5.10;4.30;;;8.70;99.90;;;;;;5001123;28;20773;-86
2022/11/19 10:37:08;;;;;;;6.93;4.17;;;8.70;99.90;;;;;;4999585;28;20900;-87
2022/11/19 10:39:40;;;;;;;6.00;4.00;;;8.70;99.90;;;;;;4997282;28;20221;-89
2022/11/19 10:42:21;;;;;;;4.53;3.97;;;8.60;99.90;;;;;;4987808;28;20197;-86
2022/11/19 10:44:57;;;;;;;8.50;4.57;;;8.60;99.90;;;;;;5001344;28;20614;-88
2022/11/19 10:47:26;;;;;;;4.83;4.43;;;8.60;99.90;;;;;;4988720;28;20346;-87
2022/11/19 10:49:53;;;;;;;5.90;4.70;;;8.70;99.90;;;;;;5005403;28;20742;-87
2022/11/19 10:52:41;;;;;;;5.00;4.50;;;8.70;99.90;;;;;;5006109;28;20221;-88
2022/11/19 10:55:41;;;;;;;7.67;4.10;;;8.70;99.90;;;;;;4998811;28;20189;-87
2022/11/19 10:58:09;;;;;;;4.70;4.30;;;8.80;99.90;;;;;;5000243;28;20209;-86
2022/11/19 11:00:37;;;;;;;5.07;4.57;;;8.90;99.90;;;;;;5006590;28;20217;-85
2022/11/19 11:03:05;;;;;;;5.37;4.37;;;8.90;99.90;;;;;;5005653;28;20199;-87
2022/11/19 11:05:51;;;;;;;4.40;4.00;;;8.80;99.90;;;;;;4992050;28;20190;-89
2022/11/19 11:08:16;;;;;;;4.67;4.20;;;8.90;99.90;;;;;;5007853;28;20288;-86
2022/11/19 11:10:45;;;;;;;6.40;4.80;;;8.90;99.90;;;;;;5007299;28;20245;-87
2022/11/19 11:16:19;;;;;;;4.43;4.03;;;8.90;99.90;;;;;;5006226;28;20558;-86
2022/11/19 11:18:46;;;;;;;7.10;4.10;;;8.90;99.90;;;;;;5005407;28;20220;-85
2022/11/19 11:21:45;;;;;;;5.43;4.37;;;9.00;99.90;;;;;;5007988;28;20193;-87
2022/11/19 11:24:13;;;;;;;5.63;4.37;;;9.00;99.90;;;;;;4967692;28;20224;-88
2022/11/19 11:26:40;;;;;;;4.30;3.90;;;9.10;99.90;;;;;;5011100;28;20202;-86
2022/11/19 11:29:12;;;;;;;6.27;4.67;;;9.20;99.90;;;;;;5008138;28;20217;-86
2022/11/19 11:31:43;;;;;;;6.13;4.40;;;9.00;99.90;;;;;;5002653;28;20201;-86
2022/11/19 11:34:36;;;;;;;5.57;4.33;;;9.20;99.90;;;;;;5003971;28;20623;-90
2022/11/19 11:37:04;;;;;;;6.03;4.17;;;9.20;99.90;;;;;;5006686;28;20259;-87
2022/11/19 11:39:37;;;;;;;9.23;4.13;;;9.20;99.90;;;;;;5009533;28;20205;-86
2022/11/19 11:42:04;;;;;;;4.67;4.27;;;9.10;99.90;;;;;;5007838;28;20201;-86
2022/11/19 11:44:34;;;;;;;7.83;4.40;;;9.10;99.90;;;;;;5003933;28;20185;-83
2022/11/19 11:47:21;;;;;;;6.63;4.30;;;9.10;99.90;;;;;;4998567;28;20202;-88
2022/11/19 11:49:59;;;;;;;4.27;3.87;;;9.10;99.90;;;;;;5002837;28;20209;-87
2022/11/19 11:52:40;;;;;;;3.67;3.30;;;9.20;99.90;;;;;;5004679;28;20202;-87
2022/11/19 11:55:15;;;;;;;3.93;3.57;;;9.30;99.90;;;;;;5013363;28;20782;-87
2022/11/19 11:57:54;;;;;;;4.23;3.67;;;9.40;99.90;;;;;;4989936;28;20791;-88
2022/11/19 12:00:29;;;;;;;3.90;3.50;;;9.30;99.90;;;;;;5010790;28;20198;-89
2022/11/19 12:03:02;;;;;;;5.17;3.30;;;9.30;99.90;;;;;;5014003;28;20253;-90
2022/11/19 12:05:48;;;;;;;5.23;3.90;;;9.20;99.90;;;;;;5009194;28;20189;-87
2022/11/19 12:08:45;;;;;;;4.40;3.40;;;9.30;99.90;;;;;;4995396;28;20221;-87
2022/11/19 12:11:14;;;;;;;5.47;3.33;;;9.30;99.90;;;;;;5004385;28;20294;-88
2022/11/19 12:14:04;;;;;;;4.27;3.33;;;9.20;99.90;;;;;;5006405;28;20194;-88
2022/11/19 12:16:39;;;;;;;4.47;3.30;;;9.40;99.90;;;;;;5003740;28;20218;-88
2022/11/19 12:19:20;;;;;;;5.07;3.80;;;9.40;99.90;;;;;;5005960;28;20220;-89
2022/11/19 12:22:08;;;;;;;5.47;4.43;;;9.30;99.90;;;;;;5005809;28;20185;-89
2022/11/19 12:25:00;;;;;;;3.90;3.30;;;9.30;99.90;;;;;;5007077;28;20273;-86
2022/11/19 12:27:29;;;;;;;4.23;3.40;;;9.40;99.90;;;;;;4992405;28;20289;-88
2022/11/19 12:30:19;;;;;;;3.90;3.50;;;9.50;99.90;;;;;;5001896;28;20277;-87
2022/11/19 12:33:06;;;;;;;4.93;4.43;;;9.50;99.90;;;;;;5007658;28;20179;-87
2022/11/19 12:35:31;;;;;;;6.70;6.03;;;9.50;99.90;;;;;;5005583;28;20185;-89
2022/11/19 12:38:14;;;;;;;6.03;3.70;;;9.50;99.90;;;;;;5005420;28;20276;-87
2022/11/19 12:40:48;;;;;;;3.53;3.00;;;9.50;99.90;;;;;;5008337;28;20226;-88
2022/11/19 12:43:42;;;;;;;7.70;5.90;;;9.60;99.90;;;;;;5010039;28;20189;-89
2022/11/19 12:46:34;;;;;;;4.40;3.77;;;9.60;99.90;;;;;;5004378;28;20208;-88
2022/11/19 12:49:18;;;;;;;5.40;4.90;;;9.60;99.90;;;;;;5009538;28;20237;-87
2022/11/19 12:52:07;;;;;;;5.50;3.63;;;9.60;99.90;;;;;;5004278;28;20203;-88
2022/11/19 12:54:55;;;;;;;4.33;3.93;;;9.60;99.90;;;;;;5012074;28;20187;-88
2022/11/19 12:57:51;;;;;;;4.90;3.90;;;9.70;99.90;;;;;;5006358;28;20657;-88
2022/11/19 13:00:24;;;;;;;6.83;4.87;;;9.60;99.90;;;;;;5006584;28;20465;-87
2022/11/19 13:03:13;;;;;;;6.17;4.13;;;9.60;99.90;;;;;;5004901;28;20215;-89
2022/11/19 13:06:01;;;;;;;4.00;3.60;;;9.70;99.90;;;;;;5006581;28;20195;-87
2022/11/19 13:08:32;;;;;;;4.27;3.87;;;9.70;99.90;;;;;;5005119;28;20187;-88
2022/11/19 13:11:04;;;;;;;5.30;3.53;;;9.70;99.90;;;;;;5009481;28;20215;-87
2022/11/19 13:13:35;;;;;;;3.50;3.20;;;9.70;99.90;;;;;;5008204;28;20278;-89
2022/11/19 13:16:11;;;;;;;6.17;3.97;;;9.60;99.90;;;;;;5003520;28;20663;-88
2022/11/19 13:18:43;;;;;;;4.27;3.87;;;9.60;99.90;;;;;;5004956;28;20242;-88
2022/11/19 13:21:20;;;;;;;4.40;3.60;;;9.40;99.90;;;;;;5007077;28;20202;-87
2022/11/19 13:23:47;;;;;;;6.40;4.53;;;9.40;99.90;;;;;;5006518;28;20186;-88
2022/11/19 13:26:23;;;;;;;4.23;3.83;;;9.50;99.90;;;;;;5002591;28;20198;-89
2022/11/19 13:29:20;;;;;;;4.40;4.00;;;9.50;99.90;;;;;;5003248;28;20769;-88
2022/11/19 13:31:57;;;;;;;7.53;4.07;;;9.40;99.90;;;;;;4992877;28;20530;-89
2022/11/19 13:34:29;;;;;;;4.70;4.17;;;9.60;99.90;;;;;;4999205;28;20201;-86
2022/11/19 13:37:11;;;;;;;4.77;3.97;;;9.60;99.90;;;;;;4999944;28;20191;-88
2022/11/19 13:39:54;;;;;;;4.60;3.83;;;9.60;99.90;;;;;;5005732;28;20211;-88
2022/11/19 13:45:14;;;;;;;3.77;3.47;;;9.70;99.90;;;;;;4998561;28;20194;-86
2022/11/19 13:48:23;;;;;;;4.47;4.00;;;9.80;99.90;;;;;;4984247;28;20201;-89